Terminal Aerodrome Forecast
Issued by NWS Quad Cities IA IL

Home | Current Version | Previous Version | Text Only | Print | Product List | Glossary On
Versions: 1 2 3 4 5 6 7 8 9 10 11 12 13 14 15 16
000
FTUS43 KDVN 231720
TAFMLI
TAF
KMLI 231720Z 2318/2418 32008KT P6SM SCT250
     FM231900 30011G18KT P6SM FEW090
     FM240000 30008KT P6SM SCT100
     FM241500 30014G20KT P6SM FEW100=

USA.gov is the U.S. government's official web portal to all federal, state and local government web resources and services.